sensor_id;sensor_type;location;lat;lon;timestamp;P1;durP1;ratioP1;P2;durP2;ratioP2
7561;SDS011;3822;48.784;9.174;2022-10-16T00:01:25;1.90;;;1.70;;
7561;SDS011;3822;48.784;9.174;2022-10-16T00:03:55;3.37;;;1.93;;
7561;SDS011;3822;48.784;9.174;2022-10-16T00:06:23;1.93;;;1.37;;
7561;SDS011;3822;48.784;9.174;2022-10-16T00:08:51;2.50;;;1.70;;
7561;SDS011;3822;48.784;9.174;2022-10-16T00:11:25;3.07;;;1.63;;
7561;SDS011;3822;48.784;9.174;2022-10-16T00:14:03;4.93;;;1.67;;
7561;SDS011;3822;48.784;9.174;2022-10-16T00:16:34;2.50;;;1.40;;
7561;SDS011;3822;48.784;9.174;2022-10-16T00:19:01;3.50;;;1.60;;
7561;SDS011;3822;48.784;9.174;2022-10-16T00:21:29;1.90;;;1.37;;
7561;SDS011;3822;48.784;9.174;2022-10-16T00:24:00;3.43;;;1.80;;
7561;SDS011;3822;48.784;9.174;2022-10-16T00:26:34;1.83;;;1.40;;
7561;SDS011;3822;48.784;9.174;2022-10-16T00:29:03;1.70;;;1.40;;
7561;SDS011;3822;48.784;9.174;2022-10-16T00:31:30;2.33;;;1.73;;
7561;SDS011;3822;48.784;9.174;2022-10-16T00:33:57;1.67;;;1.57;;
7561;SDS011;3822;48.784;9.174;2022-10-16T00:36:24;1.87;;;1.60;;
7561;SDS011;3822;48.784;9.174;2022-10-16T00:38:53;2.93;;;1.60;;
7561;SDS011;3822;48.784;9.174;2022-10-16T00:41:21;2.70;;;1.60;;
7561;SDS011;3822;48.784;9.174;2022-10-16T00:43:56;1.97;;;1.80;;
7561;SDS011;3822;48.784;9.174;2022-10-16T00:49:16;2.03;;;1.60;;
7561;SDS011;3822;48.784;9.174;2022-10-16T00:51:54;2.47;;;1.70;;
7561;SDS011;3822;48.784;9.174;2022-10-16T00:54:25;1.97;;;1.57;;
7561;SDS011;3822;48.784;9.174;2022-10-16T00:56:57;2.67;;;1.50;;
7561;SDS011;3822;48.784;9.174;2022-10-16T00:59:29;4.27;;;1.33;;
7561;SDS011;3822;48.784;9.174;2022-10-16T01:02:03;5.40;;;3.47;;
7561;SDS011;3822;48.784;9.174;2022-10-16T01:04:35;4.93;;;3.60;;
7561;SDS011;3822;48.784;9.174;2022-10-16T01:07:17;4.40;;;3.60;;
7561;SDS011;3822;48.784;9.174;2022-10-16T01:21:02;2.60;;;1.30;;
7561;SDS011;3822;48.784;9.174;2022-10-16T01:29:54;3.53;;;1.53;;
7561;SDS011;3822;48.784;9.174;2022-10-16T01:32:34;2.63;;;1.90;;
7561;SDS011;3822;48.784;9.174;2022-10-16T01:35:11;1.90;;;1.40;;
7561;SDS011;3822;48.784;9.174;2022-10-16T01:40:33;2.40;;;1.57;;
7561;SDS011;3822;48.784;9.174;2022-10-16T01:43:06;1.80;;;1.47;;
7561;SDS011;3822;48.784;9.174;2022-10-16T01:45:38;2.20;;;1.70;;
7561;SDS011;3822;48.784;9.174;2022-10-16T01:48:09;2.90;;;1.53;;
7561;SDS011;3822;48.784;9.174;2022-10-16T01:50:44;2.07;;;1.70;;
7561;SDS011;3822;48.784;9.174;2022-10-16T01:53:18;2.60;;;1.77;;
7561;SDS011;3822;48.784;9.174;2022-10-16T01:55:46;2.70;;;1.57;;
7561;SDS011;3822;48.784;9.174;2022-10-16T01:58:15;1.60;;;1.40;;
7561;SDS011;3822;48.784;9.174;2022-10-16T02:00:42;1.70;;;1.60;;
7561;SDS011;3822;48.784;9.174;2022-10-16T02:03:11;1.57;;;1.30;;
7561;SDS011;3822;48.784;9.174;2022-10-16T02:05:41;3.07;;;2.60;;
7561;SDS011;3822;48.784;9.174;2022-10-16T02:08:19;4.17;;;3.00;;
7561;SDS011;3822;48.784;9.174;2022-10-16T02:10:48;5.07;;;3.10;;
7561;SDS011;3822;48.784;9.174;2022-10-16T02:13:17;4.70;;;3.10;;
7561;SDS011;3822;48.784;9.174;2022-10-16T02:16:05;3.00;;;1.80;;
7561;SDS011;3822;48.784;9.174;2022-10-16T02:18:32;2.63;;;1.50;;
7561;SDS011;3822;48.784;9.174;2022-10-16T02:26:43;1.77;;;1.40;;
7561;SDS011;3822;48.784;9.174;2022-10-16T02:29:20;2.40;;;1.23;;
7561;SDS011;3822;48.784;9.174;2022-10-16T02:31:52;1.57;;;1.33;;
7561;SDS011;3822;48.784;9.174;2022-10-16T02:34:24;2.67;;;1.87;;
7561;SDS011;3822;48.784;9.174;2022-10-16T02:36:53;1.47;;;1.37;;
7561;SDS011;3822;48.784;9.174;2022-10-16T02:39:21;1.70;;;1.30;;
7561;SDS011;3822;48.784;9.174;2022-10-16T02:41:48;1.50;;;1.10;;
7561;SDS011;3822;48.784;9.174;2022-10-16T02:44:18;2.07;;;1.63;;
7561;SDS011;3822;48.784;9.174;2022-10-16T02:46:45;2.47;;;1.70;;
7561;SDS011;3822;48.784;9.174;2022-10-16T02:49:11;1.50;;;1.40;;
7561;SDS011;3822;48.784;9.174;2022-10-16T02:51:37;2.00;;;1.20;;
7561;SDS011;3822;48.784;9.174;2022-10-16T02:54:04;1.60;;;1.40;;
7561;SDS011;3822;48.784;9.174;2022-10-16T02:56:30;1.77;;;1.43;;
7561;SDS011;3822;48.784;9.174;2022-10-16T02:58:57;1.80;;;1.40;;
7561;SDS011;3822;48.784;9.174;2022-10-16T03:01:24;3.53;;;1.70;;
7561;SDS011;3822;48.784;9.174;2022-10-16T03:03:50;1.60;;;1.20;;
7561;SDS011;3822;48.784;9.174;2022-10-16T03:06:17;1.53;;;1.20;;
7561;SDS011;3822;48.784;9.174;2022-10-16T03:08:43;1.50;;;1.30;;
7561;SDS011;3822;48.784;9.174;2022-10-16T03:11:10;3.30;;;1.23;;
7561;SDS011;3822;48.784;9.174;2022-10-16T03:13:36;1.20;;;1.10;;
7561;SDS011;3822;48.784;9.174;2022-10-16T03:16:03;1.63;;;1.40;;
7561;SDS011;3822;48.784;9.174;2022-10-16T03:18:29;1.93;;;1.53;;
7561;SDS011;3822;48.784;9.174;2022-10-16T03:20:56;1.80;;;1.20;;
7561;SDS011;3822;48.784;9.174;2022-10-16T03:23:22;1.70;;;1.37;;
7561;SDS011;3822;48.784;9.174;2022-10-16T03:25:49;1.53;;;1.27;;
7561;SDS011;3822;48.784;9.174;2022-10-16T03:28:15;1.40;;;1.20;;
7561;SDS011;3822;48.784;9.174;2022-10-16T03:30:43;1.90;;;1.50;;
7561;SDS011;3822;48.784;9.174;2022-10-16T03:33:09;1.50;;;1.20;;
7561;SDS011;3822;48.784;9.174;2022-10-16T03:35:36;2.40;;;1.37;;
7561;SDS011;3822;48.784;9.174;2022-10-16T03:38:03;2.03;;;1.40;;
7561;SDS011;3822;48.784;9.174;2022-10-16T03:40:29;1.43;;;1.20;;
7561;SDS011;3822;48.784;9.174;2022-10-16T03:42:58;1.90;;;1.40;;
7561;SDS011;3822;48.784;9.174;2022-10-16T03:45:25;1.90;;;1.30;;
7561;SDS011;3822;48.784;9.174;2022-10-16T03:47:52;2.10;;;1.27;;
7561;SDS011;3822;48.784;9.174;2022-10-16T03:50:19;1.77;;;1.47;;
7561;SDS011;3822;48.784;9.174;2022-10-16T03:52:45;5.70;;;1.50;;
7561;SDS011;3822;48.784;9.174;2022-10-16T03:55:12;2.33;;;1.70;;
7561;SDS011;3822;48.784;9.174;2022-10-16T03:57:38;1.70;;;1.50;;
7561;SDS011;3822;48.784;9.174;2022-10-16T04:00:05;5.93;;;1.70;;
7561;SDS011;3822;48.784;9.174;2022-10-16T04:02:32;2.50;;;1.80;;
7561;SDS011;3822;48.784;9.174;2022-10-16T04:04:58;1.70;;;1.60;;
7561;SDS011;3822;48.784;9.174;2022-10-16T04:07:25;3.67;;;1.70;;
7561;SDS011;3822;48.784;9.174;2022-10-16T04:09:51;2.00;;;1.43;;
7561;SDS011;3822;48.784;9.174;2022-10-16T04:12:18;1.97;;;1.70;;
7561;SDS011;3822;48.784;9.174;2022-10-16T04:14:44;3.10;;;1.67;;
7561;SDS011;3822;48.784;9.174;2022-10-16T04:17:11;2.10;;;1.43;;
7561;SDS011;3822;48.784;9.174;2022-10-16T04:19:37;2.50;;;1.57;;
7561;SDS011;3822;48.784;9.174;2022-10-16T04:22:03;2.57;;;1.60;;
7561;SDS011;3822;48.784;9.174;2022-10-16T04:24:30;3.30;;;2.00;;
7561;SDS011;3822;48.784;9.174;2022-10-16T04:26:57;2.07;;;1.30;;
7561;SDS011;3822;48.784;9.174;2022-10-16T04:29:23;3.20;;;1.93;;
7561;SDS011;3822;48.784;9.174;2022-10-16T04:31:50;1.90;;;1.50;;
7561;SDS011;3822;48.784;9.174;2022-10-16T04:34:16;3.03;;;1.30;;
7561;SDS011;3822;48.784;9.174;2022-10-16T04:36:43;3.03;;;1.33;;
7561;SDS011;3822;48.784;9.174;2022-10-16T04:39:09;1.30;;;1.20;;
7561;SDS011;3822;48.784;9.174;2022-10-16T04:41:36;2.03;;;1.50;;
7561;SDS011;3822;48.784;9.174;2022-10-16T04:44:02;1.93;;;1.70;;
7561;SDS011;3822;48.784;9.174;2022-10-16T04:46:28;1.50;;;1.17;;
7561;SDS011;3822;48.784;9.174;2022-10-16T04:48:55;1.90;;;1.30;;
7561;SDS011;3822;48.784;9.174;2022-10-16T04:51:21;2.07;;;1.43;;
7561;SDS011;3822;48.784;9.174;2022-10-16T04:53:48;3.57;;;1.40;;
7561;SDS011;3822;48.784;9.174;2022-10-16T04:56:15;3.27;;;1.93;;
7561;SDS011;3822;48.784;9.174;2022-10-16T04:58:41;1.60;;;1.20;;
7561;SDS011;3822;48.784;9.174;2022-10-16T05:01:08;1.80;;;1.50;;
7561;SDS011;3822;48.784;9.174;2022-10-16T05:03:34;1.87;;;1.40;;
7561;SDS011;3822;48.784;9.174;2022-10-16T05:06:01;6.40;;;1.40;;
7561;SDS011;3822;48.784;9.174;2022-10-16T05:08:29;2.70;;;1.80;;
7561;SDS011;3822;48.784;9.174;2022-10-16T05:10:56;2.60;;;1.57;;
7561;SDS011;3822;48.784;9.174;2022-10-16T05:13:22;1.80;;;1.60;;
7561;SDS011;3822;48.784;9.174;2022-10-16T05:15:49;3.53;;;1.70;;
7561;SDS011;3822;48.784;9.174;2022-10-16T05:18:18;2.00;;;1.80;;
7561;SDS011;3822;48.784;9.174;2022-10-16T05:20:44;1.83;;;1.50;;
7561;SDS011;3822;48.784;9.174;2022-10-16T05:23:11;2.37;;;1.37;;
7561;SDS011;3822;48.784;9.174;2022-10-16T05:25:37;9.63;;;1.50;;
7561;SDS011;3822;48.784;9.174;2022-10-16T05:28:04;2.30;;;1.67;;
7561;SDS011;3822;48.784;9.174;2022-10-16T05:30:30;3.10;;;2.10;;
7561;SDS011;3822;48.784;9.174;2022-10-16T05:32:57;2.10;;;1.60;;
7561;SDS011;3822;48.784;9.174;2022-10-16T05:35:23;1.77;;;1.47;;
7561;SDS011;3822;48.784;9.174;2022-10-16T05:37:50;3.17;;;1.67;;
7561;SDS011;3822;48.784;9.174;2022-10-16T05:40:16;1.63;;;1.23;;
7561;SDS011;3822;48.784;9.174;2022-10-16T05:42:43;1.77;;;1.50;;
7561;SDS011;3822;48.784;9.174;2022-10-16T05:45:10;2.80;;;1.60;;
7561;SDS011;3822;48.784;9.174;2022-10-16T05:47:37;3.27;;;1.70;;
7561;SDS011;3822;48.784;9.174;2022-10-16T05:50:04;3.40;;;1.83;;
7561;SDS011;3822;48.784;9.174;2022-10-16T05:52:31;1.70;;;1.40;;
7561;SDS011;3822;48.784;9.174;2022-10-16T05:54:58;2.50;;;1.70;;
7561;SDS011;3822;48.784;9.174;2022-10-16T05:57:24;4.17;;;1.60;;
7561;SDS011;3822;48.784;9.174;2022-10-16T05:59:51;1.80;;;1.50;;
7561;SDS011;3822;48.784;9.174;2022-10-16T06:02:17;3.20;;;1.43;;
7561;SDS011;3822;48.784;9.174;2022-10-16T06:04:44;2.20;;;1.67;;
7561;SDS011;3822;48.784;9.174;2022-10-16T06:07:10;1.97;;;1.77;;
7561;SDS011;3822;48.784;9.174;2022-10-16T06:09:37;4.13;;;1.73;;
7561;SDS011;3822;48.784;9.174;2022-10-16T06:12:03;2.13;;;1.80;;
7561;SDS011;3822;48.784;9.174;2022-10-16T06:14:30;2.63;;;1.80;;
7561;SDS011;3822;48.784;9.174;2022-10-16T06:16:57;5.33;;;1.90;;
7561;SDS011;3822;48.784;9.174;2022-10-16T06:19:23;2.83;;;1.77;;
7561;SDS011;3822;48.784;9.174;2022-10-16T06:21:49;3.70;;;1.70;;
7561;SDS011;3822;48.784;9.174;2022-10-16T06:24:16;3.33;;;1.90;;
7561;SDS011;3822;48.784;9.174;2022-10-16T06:26:42;5.80;;;2.20;;
7561;SDS011;3822;48.784;9.174;2022-10-16T06:29:09;3.07;;;1.60;;
7561;SDS011;3822;48.784;9.174;2022-10-16T06:31:35;4.37;;;2.27;;
7561;SDS011;3822;48.784;9.174;2022-10-16T06:34:02;2.50;;;1.90;;
7561;SDS011;3822;48.784;9.174;2022-10-16T06:36:30;3.77;;;2.10;;
7561;SDS011;3822;48.784;9.174;2022-10-16T06:38:56;3.80;;;2.20;;
7561;SDS011;3822;48.784;9.174;2022-10-16T06:41:23;4.67;;;2.10;;
7561;SDS011;3822;48.784;9.174;2022-10-16T06:43:49;2.90;;;1.70;;
7561;SDS011;3822;48.784;9.174;2022-10-16T06:46:19;2.27;;;1.63;;
7561;SDS011;3822;48.784;9.174;2022-10-16T06:48:49;4.00;;;2.27;;
7561;SDS011;3822;48.784;9.174;2022-10-16T06:51:19;2.70;;;1.50;;
7561;SDS011;3822;48.784;9.174;2022-10-16T06:53:49;2.40;;;1.77;;
7561;SDS011;3822;48.784;9.174;2022-10-16T06:56:22;2.33;;;1.70;;
7561;SDS011;3822;48.784;9.174;2022-10-16T06:58:51;1.90;;;1.50;;
7561;SDS011;3822;48.784;9.174;2022-10-16T07:01:20;2.33;;;1.80;;
7561;SDS011;3822;48.784;9.174;2022-10-16T07:03:49;2.33;;;1.30;;
7561;SDS011;3822;48.784;9.174;2022-10-16T07:06:17;2.00;;;1.40;;
7561;SDS011;3822;48.784;9.174;2022-10-16T07:08:46;2.23;;;1.50;;
7561;SDS011;3822;48.784;9.174;2022-10-16T07:11:14;2.50;;;1.57;;
7561;SDS011;3822;48.784;9.174;2022-10-16T07:13:44;3.30;;;1.90;;
7561;SDS011;3822;48.784;9.174;2022-10-16T07:16:16;8.90;;;2.07;;
7561;SDS011;3822;48.784;9.174;2022-10-16T07:18:45;7.23;;;2.00;;
7561;SDS011;3822;48.784;9.174;2022-10-16T07:21:17;4.60;;;1.50;;
7561;SDS011;3822;48.784;9.174;2022-10-16T07:23:52;2.10;;;1.40;;
7561;SDS011;3822;48.784;9.174;2022-10-16T07:26:21;1.67;;;1.30;;
7561;SDS011;3822;48.784;9.174;2022-10-16T07:28:49;6.40;;;1.53;;
7561;SDS011;3822;48.784;9.174;2022-10-16T07:31:16;3.37;;;1.50;;
7561;SDS011;3822;48.784;9.174;2022-10-16T07:33:47;3.23;;;1.33;;
7561;SDS011;3822;48.784;9.174;2022-10-16T07:36:15;1.80;;;1.33;;
7561;SDS011;3822;48.784;9.174;2022-10-16T07:38:44;1.63;;;1.30;;
7561;SDS011;3822;48.784;9.174;2022-10-16T07:41:12;3.10;;;1.50;;
7561;SDS011;3822;48.784;9.174;2022-10-16T07:43:45;3.30;;;1.50;;
7561;SDS011;3822;48.784;9.174;2022-10-16T07:46:14;1.43;;;1.20;;
7561;SDS011;3822;48.784;9.174;2022-10-16T07:48:42;3.83;;;1.83;;
7561;SDS011;3822;48.784;9.174;2022-10-16T07:51:11;7.53;;;1.87;;
7561;SDS011;3822;48.784;9.174;2022-10-16T07:53:39;3.13;;;1.40;;
7561;SDS011;3822;48.784;9.174;2022-10-16T07:56:06;3.47;;;1.63;;
7561;SDS011;3822;48.784;9.174;2022-10-16T07:58:34;4.90;;;1.60;;
7561;SDS011;3822;48.784;9.174;2022-10-16T08:01:03;3.37;;;1.60;;
7561;SDS011;3822;48.784;9.174;2022-10-16T08:03:32;2.27;;;1.47;;
7561;SDS011;3822;48.784;9.174;2022-10-16T08:05:59;3.37;;;1.60;;
7561;SDS011;3822;48.784;9.174;2022-10-16T08:08:27;2.17;;;1.47;;
7561;SDS011;3822;48.784;9.174;2022-10-16T08:10:54;2.90;;;1.80;;
7561;SDS011;3822;48.784;9.174;2022-10-16T08:13:21;2.30;;;1.70;;
7561;SDS011;3822;48.784;9.174;2022-10-16T08:15:47;2.13;;;1.53;;
7561;SDS011;3822;48.784;9.174;2022-10-16T08:18:14;2.73;;;1.60;;
7561;SDS011;3822;48.784;9.174;2022-10-16T08:20:42;2.40;;;1.60;;
7561;SDS011;3822;48.784;9.174;2022-10-16T08:23:09;2.63;;;1.80;;
7561;SDS011;3822;48.784;9.174;2022-10-16T08:25:38;3.00;;;1.80;;
7561;SDS011;3822;48.784;9.174;2022-10-16T08:28:07;1.83;;;1.40;;
7561;SDS011;3822;48.784;9.174;2022-10-16T08:30:36;3.97;;;1.53;;
7561;SDS011;3822;48.784;9.174;2022-10-16T08:33:03;1.70;;;1.57;;
7561;SDS011;3822;48.784;9.174;2022-10-16T08:35:30;3.13;;;1.53;;
7561;SDS011;3822;48.784;9.174;2022-10-16T08:37:56;2.10;;;1.60;;
7561;SDS011;3822;48.784;9.174;2022-10-16T08:40:27;3.53;;;1.60;;
7561;SDS011;3822;48.784;9.174;2022-10-16T08:49:22;4.13;;;1.30;;
7561;SDS011;3822;48.784;9.174;2022-10-16T08:51:50;1.83;;;1.40;;
7561;SDS011;3822;48.784;9.174;2022-10-16T08:57:25;1.93;;;1.70;;
7561;SDS011;3822;48.784;9.174;2022-10-16T08:59:52;3.30;;;1.60;;
7561;SDS011;3822;48.784;9.174;2022-10-16T09:02:31;4.20;;;1.53;;
7561;SDS011;3822;48.784;9.174;2022-10-16T09:08:23;1.50;;;1.30;;
7561;SDS011;3822;48.784;9.174;2022-10-16T09:14:04;2.23;;;1.33;;
7561;SDS011;3822;48.784;9.174;2022-10-16T09:19:54;1.70;;;1.50;;
7561;SDS011;3822;48.784;9.174;2022-10-16T09:23:00;1.37;;;1.20;;
7561;SDS011;3822;48.784;9.174;2022-10-16T09:25:42;1.97;;;1.20;;
7561;SDS011;3822;48.784;9.174;2022-10-16T09:28:13;2.70;;;1.60;;
7561;SDS011;3822;48.784;9.174;2022-10-16T09:30:40;5.00;;;1.60;;
7561;SDS011;3822;48.784;9.174;2022-10-16T09:33:07;3.00;;;1.50;;
7561;SDS011;3822;48.784;9.174;2022-10-16T09:35:47;1.80;;;1.50;;
7561;SDS011;3822;48.784;9.174;2022-10-16T09:38:36;3.17;;;1.30;;
7561;SDS011;3822;48.784;9.174;2022-10-16T09:41:24;1.43;;;1.20;;
7561;SDS011;3822;48.784;9.174;2022-10-16T09:43:57;3.07;;;1.13;;
7561;SDS011;3822;48.784;9.174;2022-10-16T09:48:58;1.27;;;1.17;;
7561;SDS011;3822;48.784;9.174;2022-10-16T09:51:29;1.50;;;1.30;;
7561;SDS011;3822;48.784;9.174;2022-10-16T09:56:40;1.73;;;1.27;;
7561;SDS011;3822;48.784;9.174;2022-10-16T09:59:25;1.77;;;1.67;;
7561;SDS011;3822;48.784;9.174;2022-10-16T10:01:54;2.70;;;1.40;;
7561;SDS011;3822;48.784;9.174;2022-10-16T10:04:21;2.20;;;1.30;;
7561;SDS011;3822;48.784;9.174;2022-10-16T10:06:53;5.53;;;1.57;;
7561;SDS011;3822;48.784;9.174;2022-10-16T10:14:32;2.17;;;1.53;;
7561;SDS011;3822;48.784;9.174;2022-10-16T10:19:39;1.50;;;1.37;;
7561;SDS011;3822;48.784;9.174;2022-10-16T10:22:15;1.70;;;1.40;;
7561;SDS011;3822;48.784;9.174;2022-10-16T10:28:07;2.17;;;1.33;;
7561;SDS011;3822;48.784;9.174;2022-10-16T10:30:55;2.17;;;1.60;;
7561;SDS011;3822;48.784;9.174;2022-10-16T10:53:35;1.97;;;1.50;;
7561;SDS011;3822;48.784;9.174;2022-10-16T10:59:23;2.20;;;1.43;;
7561;SDS011;3822;48.784;9.174;2022-10-16T11:05:44;6.43;;;1.50;;
7561;SDS011;3822;48.784;9.174;2022-10-16T11:08:17;9.07;;;2.93;;
7561;SDS011;3822;48.784;9.174;2022-10-16T11:11:18;3.70;;;2.17;;
7561;SDS011;3822;48.784;9.174;2022-10-16T11:17:24;1.90;;;1.50;;
7561;SDS011;3822;48.784;9.174;2022-10-16T11:22:33;3.13;;;1.60;;
7561;SDS011;3822;48.784;9.174;2022-10-16T11:25:40;2.77;;;1.50;;
7561;SDS011;3822;48.784;9.174;2022-10-16T11:28:14;1.80;;;1.23;;
7561;SDS011;3822;48.784;9.174;2022-10-16T11:31:14;2.40;;;1.80;;
7561;SDS011;3822;48.784;9.174;2022-10-16T11:36:31;4.13;;;1.97;;
7561;SDS011;3822;48.784;9.174;2022-10-16T11:41:39;2.43;;;1.80;;
7561;SDS011;3822;48.784;9.174;2022-10-16T11:44:16;4.20;;;2.67;;
7561;SDS011;3822;48.784;9.174;2022-10-16T11:47:09;6.57;;;2.30;;
7561;SDS011;3822;48.784;9.174;2022-10-16T11:49:58;5.70;;;1.60;;
7561;SDS011;3822;48.784;9.174;2022-10-16T11:56:05;1.83;;;1.60;;
7561;SDS011;3822;48.784;9.174;2022-10-16T11:58:36;5.17;;;1.43;;
7561;SDS011;3822;48.784;9.174;2022-10-16T12:06:44;2.80;;;1.47;;
7561;SDS011;3822;48.784;9.174;2022-10-16T12:09:34;5.03;;;1.77;;
7561;SDS011;3822;48.784;9.174;2022-10-16T12:12:23;2.53;;;1.53;;
7561;SDS011;3822;48.784;9.174;2022-10-16T12:15:02;1.40;;;1.20;;
7561;SDS011;3822;48.784;9.174;2022-10-16T12:17:46;5.53;;;1.40;;
7561;SDS011;3822;48.784;9.174;2022-10-16T12:22:48;2.53;;;1.30;;
7561;SDS011;3822;48.784;9.174;2022-10-16T12:25:21;1.60;;;1.50;;
7561;SDS011;3822;48.784;9.174;2022-10-16T12:27:54;2.57;;;2.07;;
7561;SDS011;3822;48.784;9.174;2022-10-16T12:30:33;2.90;;;1.30;;
7561;SDS011;3822;48.784;9.174;2022-10-16T12:33:03;1.20;;;1.10;;
7561;SDS011;3822;48.784;9.174;2022-10-16T12:36:16;1.37;;;1.10;;
7561;SDS011;3822;48.784;9.174;2022-10-16T12:38:58;4.10;;;1.70;;
7561;SDS011;3822;48.784;9.174;2022-10-16T12:41:35;4.80;;;1.50;;
7561;SDS011;3822;48.784;9.174;2022-10-16T12:44:20;2.50;;;1.50;;
7561;SDS011;3822;48.784;9.174;2022-10-16T12:46:50;1.87;;;1.70;;
7561;SDS011;3822;48.784;9.174;2022-10-16T12:49:29;2.20;;;1.40;;
7561;SDS011;3822;48.784;9.174;2022-10-16T12:51:57;2.33;;;1.30;;
7561;SDS011;3822;48.784;9.174;2022-10-16T12:54:29;1.70;;;1.40;;
7561;SDS011;3822;48.784;9.174;2022-10-16T13:22:39;2.30;;;2.00;;
7561;SDS011;3822;48.784;9.174;2022-10-16T13:25:26;1.80;;;1.50;;
7561;SDS011;3822;48.784;9.174;2022-10-16T13:28:10;2.37;;;1.30;;
7561;SDS011;3822;48.784;9.174;2022-10-16T13:30:39;1.67;;;1.37;;
7561;SDS011;3822;48.784;9.174;2022-10-16T13:36:03;2.43;;;1.33;;
7561;SDS011;3822;48.784;9.174;2022-10-16T13:38:32;2.00;;;1.40;;
7561;SDS011;3822;48.784;9.174;2022-10-16T13:41:05;2.00;;;1.47;;
7561;SDS011;3822;48.784;9.174;2022-10-16T13:43:44;2.07;;;1.50;;
7561;SDS011;3822;48.784;9.174;2022-10-16T13:46:16;2.90;;;1.10;;
7561;SDS011;3822;48.784;9.174;2022-10-16T13:48:58;2.17;;;1.20;;
7561;SDS011;3822;48.784;9.174;2022-10-16T13:51:26;1.90;;;1.20;;
7561;SDS011;3822;48.784;9.174;2022-10-16T13:53:55;1.30;;;1.10;;
7561;SDS011;3822;48.784;9.174;2022-10-16T13:56:24;1.20;;;1.00;;
7561;SDS011;3822;48.784;9.174;2022-10-16T13:59:00;2.63;;;1.50;;
7561;SDS011;3822;48.784;9.174;2022-10-16T14:01:35;2.37;;;1.50;;
7561;SDS011;3822;48.784;9.174;2022-10-16T14:04:08;2.93;;;1.80;;
7561;SDS011;3822;48.784;9.174;2022-10-16T14:06:41;3.13;;;1.90;;
7561;SDS011;3822;48.784;9.174;2022-10-16T14:12:02;1.93;;;1.60;;
7561;SDS011;3822;48.784;9.174;2022-10-16T14:14:35;2.77;;;1.53;;
7561;SDS011;3822;48.784;9.174;2022-10-16T14:17:16;1.90;;;1.70;;
7561;SDS011;3822;48.784;9.174;2022-10-16T14:19:50;2.17;;;1.63;;
7561;SDS011;3822;48.784;9.174;2022-10-16T14:25:02;2.30;;;;;
7561;SDS011;3822;48.784;9.174;2022-10-16T14:27:59;2.40;;;1.83;;
7561;SDS011;3822;48.784;9.174;2022-10-16T14:30:32;3.47;;;1.80;;
7561;SDS011;3822;48.784;9.174;2022-10-16T14:33:03;6.03;;;2.00;;
7561;SDS011;3822;48.784;9.174;2022-10-16T14:35:33;1.90;;;1.50;;
7561;SDS011;3822;48.784;9.174;2022-10-16T14:38:04;3.30;;;1.87;;
7561;SDS011;3822;48.784;9.174;2022-10-16T14:40:33;2.43;;;1.60;;
7561;SDS011;3822;48.784;9.174;2022-10-16T14:43:02;2.40;;;1.70;;
7561;SDS011;3822;48.784;9.174;2022-10-16T14:45:31;2.37;;;1.67;;
7561;SDS011;3822;48.784;9.174;2022-10-16T14:48:01;2.00;;;1.57;;
7561;SDS011;3822;48.784;9.174;2022-10-16T14:50:32;1.73;;;1.40;;
7561;SDS011;3822;48.784;9.174;2022-10-16T14:52:58;2.97;;;2.00;;
7561;SDS011;3822;48.784;9.174;2022-10-16T14:55:25;3.63;;;2.50;;
7561;SDS011;3822;48.784;9.174;2022-10-16T14:57:52;2.80;;;2.20;;
7561;SDS011;3822;48.784;9.174;2022-10-16T15:00:19;2.43;;;2.07;;
7561;SDS011;3822;48.784;9.174;2022-10-16T15:02:48;2.50;;;2.13;;
7561;SDS011;3822;48.784;9.174;2022-10-16T15:07:54;3.77;;;2.07;;
7561;SDS011;3822;48.784;9.174;2022-10-16T15:10:21;3.73;;;2.03;;
7561;SDS011;3822;48.784;9.174;2022-10-16T15:12:50;2.40;;;1.80;;
7561;SDS011;3822;48.784;9.174;2022-10-16T15:17:50;3.23;;;2.20;;
7561;SDS011;3822;48.784;9.174;2022-10-16T15:20:19;3.00;;;1.77;;
7561;SDS011;3822;48.784;9.174;2022-10-16T15:22:46;2.23;;;1.60;;
7561;SDS011;3822;48.784;9.174;2022-10-16T15:27:55;2.80;;;1.80;;
7561;SDS011;3822;48.784;9.174;2022-10-16T15:30:21;2.90;;;2.10;;
7561;SDS011;3822;48.784;9.174;2022-10-16T15:32:47;4.63;;;2.17;;
7561;SDS011;3822;48.784;9.174;2022-10-16T15:35:14;3.10;;;1.77;;
7561;SDS011;3822;48.784;9.174;2022-10-16T15:37:41;2.23;;;1.50;;
7561;SDS011;3822;48.784;9.174;2022-10-16T15:40:08;1.80;;;1.63;;
7561;SDS011;3822;48.784;9.174;2022-10-16T15:42:36;2.87;;;2.00;;
7561;SDS011;3822;48.784;9.174;2022-10-16T15:45:02;3.90;;;1.90;;
7561;SDS011;3822;48.784;9.174;2022-10-16T15:47:29;3.27;;;1.83;;
7561;SDS011;3822;48.784;9.174;2022-10-16T15:49:56;2.80;;;2.20;;
7561;SDS011;3822;48.784;9.174;2022-10-16T15:52:22;3.70;;;2.40;;
7561;SDS011;3822;48.784;9.174;2022-10-16T15:54:49;7.10;;;2.20;;
7561;SDS011;3822;48.784;9.174;2022-10-16T15:57:16;2.80;;;2.30;;
7561;SDS011;3822;48.784;9.174;2022-10-16T15:59:42;5.47;;;4.10;;
7561;SDS011;3822;48.784;9.174;2022-10-16T16:02:09;4.57;;;3.40;;
7561;SDS011;3822;48.784;9.174;2022-10-16T16:04:35;2.60;;;2.30;;
7561;SDS011;3822;48.784;9.174;2022-10-16T16:07:02;2.83;;;2.13;;
7561;SDS011;3822;48.784;9.174;2022-10-16T16:09:29;1.63;;;1.53;;
7561;SDS011;3822;48.784;9.174;2022-10-16T16:11:55;4.63;;;2.00;;
7561;SDS011;3822;48.784;9.174;2022-10-16T16:14:23;3.77;;;1.90;;
7561;SDS011;3822;48.784;9.174;2022-10-16T16:16:51;3.80;;;2.43;;
7561;SDS011;3822;48.784;9.174;2022-10-16T16:19:18;6.50;;;1.90;;
7561;SDS011;3822;48.784;9.174;2022-10-16T16:21:49;2.07;;;1.87;;
7561;SDS011;3822;48.784;9.174;2022-10-16T16:24:16;2.80;;;2.20;;
7561;SDS011;3822;48.784;9.174;2022-10-16T16:26:43;4.70;;;2.47;;
7561;SDS011;3822;48.784;9.174;2022-10-16T16:29:13;4.23;;;2.33;;
7561;SDS011;3822;48.784;9.174;2022-10-16T16:31:41;3.23;;;2.10;;
7561;SDS011;3822;48.784;9.174;2022-10-16T16:34:08;4.10;;;2.50;;
7561;SDS011;3822;48.784;9.174;2022-10-16T16:36:35;3.87;;;2.20;;
7561;SDS011;3822;48.784;9.174;2022-10-16T16:39:01;3.60;;;2.20;;
7561;SDS011;3822;48.784;9.174;2022-10-16T16:41:29;3.40;;;2.40;;
7561;SDS011;3822;48.784;9.174;2022-10-16T16:44:01;3.90;;;2.60;;
7561;SDS011;3822;48.784;9.174;2022-10-16T16:46:33;3.40;;;2.40;;
7561;SDS011;3822;48.784;9.174;2022-10-16T16:49:00;4.00;;;2.30;;
7561;SDS011;3822;48.784;9.174;2022-10-16T16:51:27;3.00;;;2.40;;
7561;SDS011;3822;48.784;9.174;2022-10-16T16:53:54;7.30;;;2.23;;
7561;SDS011;3822;48.784;9.174;2022-10-16T16:56:21;4.60;;;2.63;;
7561;SDS011;3822;48.784;9.174;2022-10-16T16:58:50;3.23;;;2.40;;
7561;SDS011;3822;48.784;9.174;2022-10-16T17:01:19;3.10;;;2.37;;
7561;SDS011;3822;48.784;9.174;2022-10-16T17:03:47;5.93;;;3.50;;
7561;SDS011;3822;48.784;9.174;2022-10-16T17:06:24;4.23;;;3.07;;
7561;SDS011;3822;48.784;9.174;2022-10-16T17:08:55;5.63;;;3.13;;
7561;SDS011;3822;48.784;9.174;2022-10-16T17:11:24;5.70;;;2.97;;
7561;SDS011;3822;48.784;9.174;2022-10-16T17:13:53;5.17;;;3.70;;
7561;SDS011;3822;48.784;9.174;2022-10-16T17:16:23;8.93;;;3.50;;
7561;SDS011;3822;48.784;9.174;2022-10-16T17:18:53;5.27;;;2.60;;
7561;SDS011;3822;48.784;9.174;2022-10-16T17:21:19;6.90;;;2.90;;
7561;SDS011;3822;48.784;9.174;2022-10-16T17:23:50;4.50;;;3.53;;
7561;SDS011;3822;48.784;9.174;2022-10-16T17:26:17;4.70;;;2.50;;
7561;SDS011;3822;48.784;9.174;2022-10-16T17:28:44;3.03;;;2.47;;
7561;SDS011;3822;48.784;9.174;2022-10-16T17:31:20;4.60;;;3.27;;
7561;SDS011;3822;48.784;9.174;2022-10-16T17:33:51;8.33;;;2.87;;
7561;SDS011;3822;48.784;9.174;2022-10-16T17:36:18;4.47;;;2.72;;
7561;SDS011;3822;48.784;9.174;2022-10-16T17:38:45;6.60;;;3.03;;
7561;SDS011;3822;48.784;9.174;2022-10-16T17:41:20;4.50;;;3.17;;
7561;SDS011;3822;48.784;9.174;2022-10-16T17:43:49;4.87;;;2.60;;
7561;SDS011;3822;48.784;9.174;2022-10-16T17:46:17;8.20;;;2.80;;
7561;SDS011;3822;48.784;9.174;2022-10-16T17:48:47;4.90;;;3.23;;
7561;SDS011;3822;48.784;9.174;2022-10-16T17:51:17;6.80;;;2.43;;
7561;SDS011;3822;48.784;9.174;2022-10-16T17:53:49;4.33;;;3.17;;
7561;SDS011;3822;48.784;9.174;2022-10-16T17:56:18;5.30;;;2.77;;
7561;SDS011;3822;48.784;9.174;2022-10-16T17:58:48;4.10;;;2.80;;
7561;SDS011;3822;48.784;9.174;2022-10-16T18:01:20;3.67;;;2.70;;
7561;SDS011;3822;48.784;9.174;2022-10-16T18:03:54;4.73;;;2.60;;
7561;SDS011;3822;48.784;9.174;2022-10-16T18:06:28;3.60;;;2.60;;
7561;SDS011;3822;48.784;9.174;2022-10-16T18:08:56;5.80;;;2.90;;
7561;SDS011;3822;48.784;9.174;2022-10-16T18:11:25;5.50;;;3.23;;